Tribune, Canada
Current Conditions -  °F | °C
As of 9:15 PM on Thursday 18 Dec 2014 (Local Time) from KD50 Reporting Station
Haze Haze  
Wind Chill: 27°   Ceiling: 300
Heat Index: 27°   Visibility: 4mi
Dew Point: 27°   Wind: 0mph
Humidity: 100%   Direction: NA
Pressure: 29.93"   Gusts: NA
Location:  49.25°N, 103.82°W
Report Text: KD50 190315Z AUTO 00000KT 4SM BR OVC003 M03/M03 A2993 RMK AO2
Loading
Personal Weather Stations






























Interactive Weather Map New forecast layout! Learn more

10-Day Weather Forecast

Advertisements
Track Severe Weather on mobile